createdAt,value
2019-02-10T00:01:01.143Z,25.48
2019-02-10T00:03:56.117Z,24.13
2019-02-10T00:06:51.226Z,24.47
2019-02-10T00:09:46.254Z,24.37
2019-02-10T00:12:41.866Z,24.18
2019-02-10T00:15:36.989Z,24.23
2019-02-10T00:18:31.725Z,24.07
2019-02-10T00:21:26.912Z,24.30
2019-02-10T00:24:22.011Z,25.13
2019-02-10T00:27:16.793Z,24.10
2019-02-10T00:30:11.811Z,23.80
2019-02-10T00:33:06.766Z,23.30
2019-02-10T00:36:02.062Z,22.93
2019-02-10T00:38:57.138Z,22.87
2019-02-10T00:41:52.018Z,23.67
2019-02-10T00:44:46.870Z,24.18
2019-02-10T00:47:41.455Z,24.12
2019-02-10T00:50:37.874Z,23.40
2019-02-10T00:53:33.029Z,24.27
2019-02-10T00:56:28.184Z,24.90
2019-02-10T00:59:23.344Z,24.30
2019-02-10T01:02:18.491Z,24.18
2019-02-10T01:05:13.822Z,24.25
2019-02-10T01:08:08.968Z,24.27
2019-02-10T01:11:04.122Z,25.30
2019-02-10T01:13:59.047Z,24.10
2019-02-10T01:16:54.585Z,24.17
2019-02-10T01:19:50.127Z,23.92
2019-02-10T01:22:45.189Z,23.90
2019-02-10T01:25:40.049Z,25.02
2019-02-10T01:28:35.510Z,23.27
2019-02-10T01:31:31.141Z,22.90
2019-02-10T01:34:26.159Z,22.50
2019-02-10T01:37:21.292Z,23.07
2019-02-10T01:40:16.398Z,22.50
2019-02-10T01:43:11.552Z,22.73
2019-02-10T01:46:07.055Z,23.50
2019-02-10T01:49:02.373Z,24.82
2019-02-10T01:51:57.445Z,23.43
2019-02-10T01:54:52.786Z,22.82
2019-02-10T01:57:48.176Z,22.33
2019-02-10T02:00:43.414Z,21.87
2019-02-10T02:03:38.006Z,20.12
2019-02-10T02:06:32.963Z,20.10
2019-02-10T02:09:27.647Z,20.60
2019-02-10T02:12:22.694Z,19.90
2019-02-10T02:15:20.662Z,20.32
2019-02-10T02:18:15.578Z,19.95
2019-02-10T02:21:10.628Z,18.30
2019-02-10T02:24:05.850Z,19.23
2019-02-10T02:27:01.050Z,18.23
2019-02-10T02:29:55.779Z,18.57
2019-02-10T02:32:50.503Z,20.02
2019-02-10T02:35:45.310Z,19.23
2019-02-10T02:38:40.375Z,18.62
2019-02-10T02:41:35.019Z,19.17
2019-02-10T02:44:30.030Z,18.75
2019-02-10T02:47:24.909Z,18.77
2019-02-10T02:50:19.501Z,19.57
2019-02-10T02:53:14.776Z,20.32
2019-02-10T02:56:09.833Z,18.55
2019-02-10T02:59:05.579Z,18.15
2019-02-10T03:02:00.518Z,16.80
2019-02-10T03:04:55.514Z,17.17
2019-02-10T03:07:50.649Z,16.97
2019-02-10T03:10:46.031Z,17.30
2019-02-10T03:13:40.814Z,18.00
2019-02-10T03:16:35.820Z,18.52
2019-02-10T03:19:30.864Z,20.32
2019-02-10T03:22:26.051Z,20.32
2019-02-10T03:25:21.404Z,19.92
2019-02-10T03:28:16.297Z,22.42
2019-02-10T03:31:11.418Z,20.30
2019-02-10T03:34:06.630Z,19.82
2019-02-10T03:37:02.333Z,18.35
2019-02-10T03:39:57.811Z,20.23
2019-02-10T03:42:53.378Z,17.42
2019-02-10T03:45:48.821Z,19.20
2019-02-10T03:48:43.728Z,17.02
2019-02-10T03:51:41.809Z,18.15
2019-02-10T03:54:36.849Z,20.02
2019-02-10T03:57:32.844Z,18.90
2019-02-10T04:00:30.789Z,20.00
2019-02-10T04:03:25.617Z,19.50
2019-02-10T04:06:20.716Z,18.85
2019-02-10T04:09:15.839Z,17.32
2019-02-10T04:12:11.907Z,21.37
2019-02-10T04:15:09.486Z,14.83
2019-02-10T04:18:07.637Z,15.55
2019-02-10T04:21:03.373Z,15.75
2019-02-10T04:23:59.702Z,19.87
2019-02-10T04:26:55.143Z,18.80
2019-02-10T04:29:50.771Z,15.38
2019-02-10T04:32:46.102Z,14.40
2019-02-10T04:35:41.864Z,14.68
2019-02-10T04:38:41.291Z,14.18
2019-02-10T04:41:37.711Z,14.68
2019-02-10T04:44:36.927Z,14.50
2019-02-10T04:47:32.346Z,13.72
2019-02-10T04:50:30.603Z,14.25
2019-02-10T04:53:26.210Z,14.25
2019-02-10T04:56:23.075Z,14.55
2019-02-10T04:59:18.674Z,14.83
2019-02-10T05:02:14.829Z,13.50
2019-02-10T05:05:10.211Z,14.55
2019-02-10T05:08:05.728Z,14.25
2019-02-10T05:11:01.541Z,13.60
2019-02-10T05:13:57.274Z,13.78
2019-02-10T05:16:52.990Z,14.13
2019-02-10T05:19:49.316Z,12.98
2019-02-10T05:22:45.257Z,13.32
2019-02-10T05:25:41.488Z,14.58
2019-02-10T05:28:37.289Z,13.43
2019-02-10T05:31:32.649Z,14.03
2019-02-10T05:34:28.153Z,20.62
2019-02-10T05:37:24.091Z,13.18
2019-02-10T05:40:19.405Z,13.32
2019-02-10T05:43:16.210Z,13.88
2019-02-10T05:46:11.036Z,13.43
2019-02-10T05:49:06.785Z,15.53
2019-02-10T05:52:02.708Z,14.35
2019-02-10T05:54:59.150Z,17.50
2019-02-10T05:57:54.688Z,13.15
2019-02-10T06:00:53.090Z,12.63
2019-02-10T06:03:49.103Z,14.40
2019-02-10T06:06:45.108Z,13.38
2019-02-10T06:09:41.057Z,13.40
2019-02-10T06:12:36.879Z,13.13
2019-02-10T06:15:31.827Z,13.45
2019-02-10T06:18:27.601Z,12.88
2019-02-10T06:21:22.826Z,13.75
2019-02-10T06:24:18.237Z,13.88
2019-02-10T06:27:13.817Z,12.65
2019-02-10T06:30:09.633Z,12.43
2019-02-10T06:33:04.856Z,14.47
2019-02-10T06:36:00.656Z,11.18
2019-02-10T06:38:55.815Z,13.85
2019-02-10T06:41:51.225Z,11.43
2019-02-10T06:44:46.942Z,11.00
2019-02-10T06:47:42.318Z,11.83
2019-02-10T06:50:37.460Z,17.85
2019-02-10T06:53:32.472Z,11.10
2019-02-10T06:56:28.294Z,11.73
2019-02-10T06:59:41.071Z,12.33
2019-02-10T07:02:42.348Z,15.95
2019-02-10T07:05:37.041Z,14.20
2019-02-10T07:08:32.164Z,15.75
2019-02-10T07:11:27.784Z,13.28
2019-02-10T07:14:28.401Z,13.60
2019-02-10T07:17:53.907Z,12.88
2019-02-10T07:20:49.462Z,16.48
2019-02-10T07:24:47.838Z,12.47
2019-02-10T07:27:42.589Z,12.33
2019-02-10T07:30:52.270Z,12.53
2019-02-10T07:34:34.886Z,12.33
2019-02-10T07:38:00.100Z,13.18
2019-02-10T07:41:43.027Z,12.45
2019-02-10T07:45:01.717Z,11.15
2019-02-10T07:48:38.387Z,11.38
2019-02-10T07:52:04.445Z,11.83
2019-02-10T07:55:35.145Z,11.10
2019-02-10T07:58:41.398Z,12.13
2019-02-10T08:02:14.188Z,10.85
2019-02-10T08:05:25.305Z,11.73
2019-02-10T08:08:33.738Z,10.55
2019-02-10T08:12:11.603Z,12.30
2019-02-10T08:16:06.815Z,10.48
2019-02-10T08:19:42.136Z,10.10
2019-02-10T08:23:16.051Z,10.68
2019-02-10T08:26:56.774Z,10.90
2019-02-10T08:30:19.765Z,11.80
2019-02-10T08:33:45.120Z,11.30
2019-02-10T08:37:14.935Z,11.60
2019-02-10T08:40:40.349Z,11.55
2019-02-10T08:43:55.816Z,11.60
2019-02-10T08:47:16.931Z,12.45
2019-02-10T08:50:46.567Z,15.45
2019-02-10T08:53:45.191Z,12.33
2019-02-10T08:56:41.221Z,12.03
2019-02-10T08:59:36.462Z,11.95
2019-02-10T09:02:32.149Z,12.28
2019-02-10T09:05:28.066Z,15.45
2019-02-10T09:08:22.841Z,13.20
2019-02-10T09:11:18.009Z,13.65
2019-02-10T09:14:13.681Z,13.58
2019-02-10T09:17:08.876Z,13.98
2019-02-10T09:20:04.349Z,13.58
2019-02-10T09:23:00.075Z,15.50
2019-02-10T09:25:55.502Z,14.73
2019-02-10T09:28:50.663Z,14.58
2019-02-10T09:31:45.989Z,14.00
2019-02-10T09:34:40.848Z,14.68
2019-02-10T09:37:37.118Z,15.25
2019-02-10T09:40:32.357Z,14.47
2019-02-10T09:43:27.512Z,16.60
2019-02-10T09:46:23.294Z,17.32
2019-02-10T09:49:19.838Z,17.95
2019-02-10T09:52:15.890Z,19.30
2019-02-10T09:55:11.824Z,19.92
2019-02-10T09:58:07.727Z,20.30
2019-02-10T10:01:03.344Z,21.42
2019-02-10T10:03:58.871Z,19.40
2019-02-10T10:06:53.916Z,20.05
2019-02-10T10:09:49.775Z,21.02
2019-02-10T10:12:44.470Z,19.35
2019-02-10T10:15:41.210Z,24.43
2019-02-10T10:18:36.500Z,19.07
2019-02-10T10:21:31.630Z,23.20
2019-02-10T10:24:27.105Z,23.32
2019-02-10T10:27:22.019Z,24.10
2019-02-10T10:30:19.555Z,22.42
2019-02-10T10:33:14.204Z,22.48
2019-02-10T10:36:09.247Z,20.85
2019-02-10T10:39:05.241Z,20.90
2019-02-10T10:42:01.697Z,20.50
2019-02-10T10:44:56.482Z,19.67
2019-02-10T10:47:52.191Z,20.70
2019-02-10T10:50:47.380Z,19.00
2019-02-10T10:53:42.698Z,16.82
2019-02-10T10:56:38.219Z,18.17
2019-02-10T10:59:33.563Z,20.90
2019-02-10T11:02:28.425Z,18.87
2019-02-10T11:05:24.402Z,17.92
2019-02-10T11:08:21.060Z,17.98
2019-02-10T11:11:16.647Z,17.25
2019-02-10T11:14:11.615Z,17.25
2019-02-10T11:17:10.369Z,18.15
2019-02-10T11:20:01.602Z,17.23
2019-02-10T11:22:56.183Z,16.62
2019-02-10T11:25:50.692Z,15.70
2019-02-10T11:28:45.533Z,16.77
2019-02-10T11:31:40.446Z,16.12
2019-02-10T11:34:35.443Z,18.25
2019-02-10T11:37:31.135Z,16.40
2019-02-10T11:40:25.247Z,24.90
2019-02-10T11:43:20.754Z,17.10
2019-02-10T11:46:16.133Z,20.80
2019-02-10T11:49:11.147Z,17.77
2019-02-10T11:52:06.117Z,18.70
2019-02-10T11:55:00.751Z,17.87
2019-02-10T11:57:55.363Z,17.05
2019-02-10T12:00:50.370Z,16.60
2019-02-10T12:03:45.675Z,15.23
2019-02-10T12:06:40.536Z,17.15
2019-02-10T12:09:35.218Z,14.87
2019-02-10T12:12:30.078Z,14.85
2019-02-10T12:15:24.869Z,15.70
2019-02-10T12:18:20.154Z,15.15
2019-02-10T12:21:14.959Z,15.25
2019-02-10T12:24:10.213Z,15.75
2019-02-10T12:27:05.089Z,16.75
2019-02-10T12:30:00.737Z,19.73
2019-02-10T12:32:56.824Z,20.48
2019-02-10T12:35:58.181Z,16.90
2019-02-10T12:38:47.663Z,19.70
2019-02-10T12:41:43.188Z,23.90
2019-02-10T12:44:38.528Z,24.10
2019-02-10T12:47:34.455Z,24.37
2019-02-10T12:50:29.577Z,25.92
2019-02-10T12:53:24.178Z,19.65
2019-02-10T12:56:19.232Z,21.35
2019-02-10T12:59:13.662Z,20.48
2019-02-10T13:02:08.639Z,20.35
2019-02-10T13:05:03.455Z,22.80
2019-02-10T13:07:58.667Z,24.82
2019-02-10T13:10:53.599Z,28.12
2019-02-10T13:13:51.617Z,29.80
2019-02-10T13:16:46.418Z,33.80
2019-02-10T13:19:41.146Z,34.18
2019-02-10T13:22:35.988Z,39.23
2019-02-10T13:25:31.248Z,39.78
2019-02-10T13:28:27.770Z,37.70
2019-02-10T13:31:21.332Z,39.55
2019-02-10T13:34:16.412Z,42.73
2019-02-10T13:37:11.807Z,44.93
2019-02-10T13:40:07.245Z,44.33
2019-02-10T13:43:02.328Z,46.53
2019-02-10T13:45:57.276Z,50.33
2019-02-10T13:48:52.115Z,53.48
2019-02-10T13:51:47.644Z,53.52
2019-02-10T13:54:42.566Z,53.65
2019-02-10T13:57:37.674Z,51.45
2019-02-10T14:00:32.228Z,53.20
2019-02-10T14:03:27.270Z,53.35
2019-02-10T14:06:25.163Z,52.60
2019-02-10T14:09:20.084Z,53.80
2019-02-10T14:12:15.402Z,56.30
2019-02-10T14:15:11.426Z,53.68
2019-02-10T14:18:06.352Z,53.73
2019-02-10T14:21:02.566Z,52.17
2019-02-10T14:23:57.280Z,51.50
2019-02-10T14:26:52.473Z,51.30
2019-02-10T14:29:50.711Z,49.60
2019-02-10T14:32:46.410Z,48.23
2019-02-10T14:35:40.945Z,47.10
2019-02-10T14:38:42.753Z,45.65
2019-02-10T14:41:37.854Z,41.90
2019-02-10T14:44:32.655Z,42.43
2019-02-10T14:47:27.793Z,42.65
2019-02-10T14:50:22.649Z,41.80
2019-02-10T14:53:17.359Z,36.40
2019-02-10T14:56:11.876Z,37.10
2019-02-10T14:59:07.087Z,35.85
2019-02-10T15:02:02.290Z,35.13
2019-02-10T15:04:57.151Z,35.13
2019-02-10T15:07:52.026Z,34.95
2019-02-10T15:10:47.475Z,32.17
2019-02-10T15:13:42.589Z,30.72
2019-02-10T15:16:37.959Z,30.12
2019-02-10T15:19:33.401Z,29.80
2019-02-10T15:22:28.376Z,30.10
2019-02-10T15:25:23.148Z,28.67
2019-02-10T15:28:20.206Z,29.30
2019-02-10T15:31:15.344Z,29.57
2019-02-10T15:34:10.560Z,29.50
2019-02-10T15:37:05.423Z,29.07
2019-02-10T15:40:00.660Z,29.67
2019-02-10T15:42:55.982Z,31.17
2019-02-10T15:45:51.333Z,33.67
2019-02-10T15:48:46.414Z,31.68
2019-02-10T15:51:41.292Z,31.42
2019-02-10T15:54:36.673Z,31.93
2019-02-10T15:57:31.747Z,31.37
2019-02-10T16:00:28.733Z,34.30
2019-02-10T16:03:23.631Z,36.42
2019-02-10T16:06:18.436Z,36.33
2019-02-10T16:09:13.139Z,32.75
2019-02-10T16:12:08.176Z,33.80
2019-02-10T16:15:02.988Z,33.15
2019-02-10T16:17:57.819Z,32.58
2019-02-10T16:20:52.532Z,30.92
2019-02-10T16:23:47.031Z,25.60
2019-02-10T16:26:41.767Z,26.33
2019-02-10T16:29:36.577Z,26.75
2019-02-10T16:32:31.191Z,29.35
2019-02-10T16:35:25.889Z,30.85
2019-02-10T16:38:20.669Z,31.97
2019-02-10T16:41:15.231Z,30.27
2019-02-10T16:44:09.817Z,26.52
2019-02-10T16:47:04.639Z,27.00
2019-02-10T16:49:59.287Z,27.02
2019-02-10T16:52:54.251Z,27.60
2019-02-10T16:55:49.415Z,27.45
2019-02-10T16:58:43.984Z,27.80
2019-02-10T17:01:39.085Z,27.22
2019-02-10T17:04:33.664Z,27.93
2019-02-10T17:07:28.228Z,27.90
2019-02-10T17:10:23.647Z,29.27
2019-02-10T17:13:18.411Z,29.40
2019-02-10T17:16:13.349Z,31.10
2019-02-10T17:19:08.602Z,32.10
2019-02-10T17:22:03.334Z,32.95
2019-02-10T17:24:58.044Z,32.67
2019-02-10T17:27:52.601Z,33.08
2019-02-10T17:30:47.745Z,33.15
2019-02-10T17:33:42.711Z,29.70
2019-02-10T17:36:37.527Z,30.88
2019-02-10T17:39:31.988Z,29.27
2019-02-10T17:42:26.535Z,28.42
2019-02-10T17:45:22.782Z,28.90
2019-02-10T17:48:17.703Z,29.95
2019-02-10T17:51:12.524Z,32.20
2019-02-10T17:54:07.338Z,35.13
2019-02-10T17:57:01.949Z,35.25
2019-02-10T17:59:56.906Z,36.53
2019-02-10T18:02:51.951Z,36.50
2019-02-10T18:05:46.873Z,35.45
2019-02-10T18:08:41.690Z,34.58
2019-02-10T18:11:36.513Z,34.25
2019-02-10T18:14:54.703Z,35.98
2019-02-10T18:18:05.673Z,36.25
2019-02-10T18:21:30.936Z,31.45
2019-02-10T18:24:42.065Z,30.85
2019-02-10T18:27:53.704Z,29.98
2019-02-10T18:31:05.049Z,31.68
2019-02-10T18:34:19.976Z,29.42
2019-02-10T18:37:38.501Z,28.12
2019-02-10T18:40:50.065Z,28.87
2019-02-10T18:43:55.611Z,28.07
2019-02-10T18:47:08.756Z,26.75
2019-02-10T18:50:21.203Z,28.07
2019-02-10T18:53:37.888Z,26.05
2019-02-10T18:56:53.425Z,23.67
2019-02-10T19:00:03.088Z,24.75
2019-02-10T19:03:24.928Z,24.12
2019-02-10T19:06:29.151Z,22.75
2019-02-10T19:09:38.813Z,23.80
2019-02-10T19:12:57.820Z,24.05
2019-02-10T19:16:18.999Z,25.92
2019-02-10T19:19:37.146Z,24.12
2019-02-10T19:22:42.566Z,23.02
2019-02-10T19:25:58.529Z,23.50
2019-02-10T19:29:23.046Z,22.17
2019-02-10T19:32:28.277Z,21.23
2019-02-10T19:35:41.001Z,20.72
2019-02-10T19:38:45.613Z,21.02
2019-02-10T19:41:45.903Z,20.52
2019-02-10T19:44:57.387Z,20.30
2019-02-10T19:48:12.630Z,19.55
2019-02-10T19:51:21.861Z,18.37
2019-02-10T19:54:21.574Z,19.10
2019-02-10T19:57:37.370Z,19.17
2019-02-10T20:00:53.031Z,19.12
2019-02-10T20:03:59.588Z,19.73
2019-02-10T20:07:14.399Z,18.80
2019-02-10T20:10:30.305Z,18.87
2019-02-10T20:13:40.836Z,19.27
2019-02-10T20:16:52.320Z,19.85
2019-02-10T20:20:08.150Z,19.50
2019-02-10T20:23:12.586Z,19.98
2019-02-10T20:26:30.622Z,19.23
2019-02-10T20:29:41.873Z,19.45
2019-02-10T20:33:00.306Z,20.92
2019-02-10T20:36:24.978Z,21.73
2019-02-10T20:39:46.732Z,20.80
2019-02-10T20:43:02.374Z,21.68
2019-02-10T20:46:20.147Z,23.92
2019-02-10T20:49:24.590Z,26.42
2019-02-10T20:52:31.288Z,26.82
2019-02-10T20:55:35.445Z,28.50
2019-02-10T20:58:41.366Z,31.27
2019-02-10T21:01:44.849Z,33.10
2019-02-10T21:05:03.299Z,38.75
2019-02-10T21:08:14.288Z,39.25
2019-02-10T21:11:26.893Z,38.92
2019-02-10T21:14:42.597Z,39.75
2019-02-10T21:17:57.806Z,41.18
2019-02-10T21:21:10.616Z,41.90
2019-02-10T21:24:21.244Z,41.83
2019-02-10T21:27:32.937Z,46.23
2019-02-10T21:30:57.717Z,45.85
2019-02-10T21:34:04.082Z,50.63
2019-02-10T21:37:06.400Z,54.13
2019-02-10T21:40:37.482Z,56.67
2019-02-10T21:43:48.578Z,60.55
2019-02-10T21:46:49.942Z,60.75
2019-02-10T21:49:44.871Z,61.98
2019-02-10T21:52:39.945Z,56.98
2019-02-10T21:55:35.264Z,57.80
2019-02-10T21:58:30.613Z,55.98
2019-02-10T22:01:25.728Z,55.58
2019-02-10T22:04:20.371Z,53.98
2019-02-10T22:07:15.304Z,52.67
2019-02-10T22:10:11.586Z,52.65
2019-02-10T22:13:06.556Z,53.80
2019-02-10T22:16:01.339Z,53.40
2019-02-10T22:18:56.303Z,52.45
2019-02-10T22:21:51.435Z,52.78
2019-02-10T22:24:46.095Z,52.95
2019-02-10T22:27:41.016Z,54.55
2019-02-10T22:30:36.108Z,54.65
2019-02-10T22:33:31.231Z,55.33
2019-02-10T22:36:25.827Z,55.50
2019-02-10T22:39:20.422Z,55.67
2019-02-10T22:42:15.378Z,58.08
2019-02-10T22:45:11.174Z,58.55
2019-02-10T22:48:05.968Z,62.35
2019-02-10T22:51:00.500Z,62.98
2019-02-10T22:53:54.724Z,64.62
2019-02-10T22:56:49.677Z,67.05
2019-02-10T22:59:44.862Z,72.27
2019-02-10T23:02:39.470Z,72.78
2019-02-10T23:05:34.269Z,74.40
2019-02-10T23:08:29.010Z,76.73
2019-02-10T23:11:23.708Z,71.25
2019-02-10T23:14:18.717Z,69.20
2019-02-10T23:17:12.998Z,65.32
2019-02-10T23:20:07.351Z,62.88
2019-02-10T23:23:02.257Z,62.23
2019-02-10T23:25:56.941Z,62.67
2019-02-10T23:28:51.919Z,58.63
2019-02-10T23:31:46.747Z,54.27
2019-02-10T23:34:41.439Z,54.73
2019-02-10T23:37:35.873Z,53.60
2019-02-10T23:40:30.464Z,52.83
2019-02-10T23:43:25.336Z,59.23
2019-02-10T23:46:20.828Z,57.30
2019-02-10T23:49:15.732Z,52.95
2019-02-10T23:52:10.591Z,51.83
2019-02-10T23:55:05.122Z,47.67
2019-02-10T23:57:59.796Z,47.47
